Accueil
METAR-TAF:

METAR-TAF

Aéroports :

Base aérienne de Beauvechain

Beauvechain, Belgique

latitude: 50-45N, longitude: 004-46E, altitude: 105 m

Observation

Le bulletin a été fait il y a 31 minutes, à 18:55 UTC
Vent 3 kt de est
Température 1°C
Humidité 86%
Pression 1013 hPa
Visibilité 10 km ou plus

METAR: EBBE 201855Z AUTO 09003KT 9999 NCD 01/M01 Q1013 BLU

Heure: 20:26 (19:26 UTC)

Prévision

Le bulletin a été fait il y a 3 heures et 45 minutes, à 15:41 UTC
Prévision valable du 20 à 19 UTC au 21 à 07 UTC
Vent 7 kt de est
Visibilité 10 km ou plus
Nuages épars à une hauteur de 8000 ft
Probabilité 40% :
Temporairement
du 21 à 04 UTC au 21 à 07 UTC
Visibilité: 3000 m
Quelques nuages à une hauteur de 700 ft
Nuages épars à une hauteur de 1000 ft
brume

TAF: EBBE 201541Z 2019/2107 09007KT 9999 SCT080 PROB40 TEMPO 2104/2107 3000 BR FEW007 SCT010

Observations et prévisions météorologiques de plus de 4000 aéroports (messages METAR et TAF).

Les stations disponibles sont représentées par des disques jaunes et rouges sur la carte.

Passer la souris dessus pour voir le nom de la station.

Cliquer dessus pour voir les observations et prévisions météorologiques.

Pour changer de carte: cliquez sur les boutons verts avec une croix noire pour zoomer, sur le bouton vert avec un tiret pour effectuer un zoom arrière, ou sur les flèches vertes pour les cartes adjacentes.


METAR-TAF: